Time;durP1;ratioP1;P1;durP2;ratioP2;P2;SDS_P1;SDS_P2;PMS_P1;PMS_P2;Temp;Humidity;BMP_temperature;BMP_pressure;BME280_temperature;BME280_humidity;BME280_pressure;Samples;Min_cycle;Max_cycle;Signal;HPM_P1;HPM_P2
2021/09/23 00:00:21;;;;;;;16.00;11.97;;;;;;;10.68;100.00;101231.53;5131634;28;20164;-72
2021/09/23 00:02:48;;;;;;;14.57;12.23;;;;;;;10.73;100.00;101226.84;5131985;28;20175;-72
2021/09/23 00:05:18;;;;;;;14.97;12.10;;;;;;;10.84;100.00;101240.34;5131395;28;20228;-72
2021/09/23 00:07:45;;;;;;;15.67;11.70;;;;;;;10.89;100.00;101234.84;5131626;27;20185;-72
2021/09/23 00:10:13;;;;;;;13.80;12.47;;;;;;;10.89;100.00;101253.97;5131600;28;20180;-71
2021/09/23 00:12:40;;;;;;;15.00;11.40;;;;;;;10.76;100.00;101233.63;5131461;28;20172;-72
2021/09/23 00:15:06;;;;;;;12.20;11.07;;;;;;;10.66;100.00;101237.31;5132357;27;20255;-72
2021/09/23 00:17:32;;;;;;;13.33;11.20;;;;;;;10.57;100.00;101222.69;5135675;27;20165;-72
2021/09/23 00:19:57;;;;;;;16.07;11.70;;;;;;;10.53;100.00;101220.81;5135604;27;20642;-71
2021/09/23 00:22:22;;;;;;;15.20;13.70;;;;;;;10.65;100.00;101208.34;5135695;27;20180;-71
2021/09/23 00:24:48;;;;;;;11.30;10.20;;;;;;;10.66;100.00;101207.25;5135335;27;20172;-71
2021/09/23 00:27:13;;;;;;;15.67;13.77;;;;;;;10.88;100.00;101214.09;5135523;27;20175;-72
2021/09/23 00:29:38;;;;;;;17.80;13.03;;;;;;;11.17;100.00;101209.28;5135287;27;20676;-72
2021/09/23 00:32:04;;;;;;;17.17;14.70;;;;;;;11.29;100.00;101186.94;5135423;27;20176;-72
2021/09/23 00:34:29;;;;;;;19.07;15.27;;;;;;;11.49;100.00;101183.06;5135242;27;20577;-72
2021/09/23 00:36:55;;;;;;;17.27;14.27;;;;;;;11.52;100.00;101176.97;5135343;27;20176;-72
2021/09/23 00:39:23;;;;;;;17.37;14.67;;;;;;;11.52;100.00;101172.31;5135432;27;20183;-72
2021/09/23 00:41:49;;;;;;;16.70;14.00;;;;;;;11.59;100.00;101177.44;5135265;27;20166;-72
2021/09/23 00:44:19;;;;;;;17.87;14.60;;;;;;;11.58;100.00;101175.81;5134891;27;20172;-72
2021/09/23 00:46:46;;;;;;;16.73;13.90;;;;;;;11.62;100.00;101174.09;5135078;27;20196;-72
2021/09/23 00:49:12;;;;;;;22.57;14.23;;;;;;;11.63;100.00;101176.50;5135082;27;20201;-72
2021/09/23 00:51:38;;;;;;;17.63;15.77;;;;;;;11.58;100.00;101175.81;5134979;27;20256;-72
2021/09/23 00:54:04;;;;;;;18.33;14.70;;;;;;;11.62;100.00;101168.59;5116424;27;20636;-72
2021/09/23 00:56:29;;;;;;;16.50;14.87;;;;;;;11.61;100.00;101165.06;5116121;27;20536;-72
2021/09/23 00:58:55;;;;;;;17.63;14.57;;;;;;;11.56;100.00;101164.31;5134878;27;20172;-72
2021/09/23 01:01:20;;;;;;;24.83;15.10;;;;;;;11.56;100.00;101158.84;5134983;27;20172;-72
2021/09/23 01:03:45;;;;;;;17.37;15.07;;;;;;;11.56;100.00;101153.38;5134700;27;20197;-72
2021/09/23 01:06:11;;;;;;;21.30;16.10;;;;;;;11.53;100.00;101165.72;5134594;27;20272;-72
2021/09/23 01:08:40;;;;;;;21.57;15.00;;;;;;;11.50;100.00;101157.31;5134825;27;20165;-72
2021/09/23 01:11:05;;;;;;;20.27;14.73;;;;;;;11.42;100.00;101149.78;5135088;27;20601;-72
2021/09/23 01:13:31;;;;;;;16.90;14.70;;;;;;;11.41;100.00;101140.75;5134541;27;20200;-72
2021/09/23 01:15:56;;;;;;;18.63;14.80;;;;;;;11.33;100.00;101133.25;5134435;27;20262;-72
2021/09/23 01:18:22;;;;;;;20.03;15.70;;;;;;;11.35;100.00;101143.91;5134664;27;20176;-72
2021/09/23 01:20:48;;;;;;;21.30;15.90;;;;;;;11.32;100.00;101145.31;5134402;27;20255;-72
2021/09/23 01:23:14;;;;;;;16.57;14.37;;;;;;;11.21;100.00;101139.19;5134375;27;20595;-72
2021/09/23 01:25:39;;;;;;;17.63;15.93;;;;;;;11.12;100.00;101143.69;5133520;27;20269;-72
2021/09/23 01:28:05;;;;;;;19.87;14.30;;;;;;;11.11;100.00;101157.69;5134473;27;20176;-72
2021/09/23 01:30:31;;;;;;;16.50;14.83;;;;;;;11.10;100.00;101154.13;5134252;27;20172;-72
2021/09/23 01:32:56;;;;;;;15.77;13.60;;;;;;;11.01;100.00;101142.25;5134219;27;20175;-72
2021/09/23 01:35:22;;;;;;;15.77;14.03;;;;;;;10.82;100.00;101141.44;5134050;27;20782;-72
2021/09/23 01:37:47;;;;;;;17.67;14.40;;;;;;;10.69;100.00;101134.78;5134092;27;20252;-72
2021/09/23 01:40:13;;;;;;;16.07;13.97;;;;;;;10.52;100.00;101132.56;5134024;27;20169;-72
2021/09/23 01:42:41;;;;;;;16.63;14.43;;;;;;;10.34;100.00;101127.91;5133998;27;20693;-72
2021/09/23 01:45:07;;;;;;;15.20;13.67;;;;;;;10.13;100.00;101122.66;5133803;27;20192;-72
2021/09/23 01:47:32;;;;;;;16.13;14.47;;;;;;;10.01;100.00;101105.88;5133939;27;20175;-72
2021/09/23 01:49:59;;;;;;;19.00;15.40;;;;;;;10.02;100.00;101101.22;5133922;27;20172;-71
2021/09/23 01:52:24;;;;;;;19.00;15.50;;;;;;;10.01;100.00;101111.34;5133699;27;20639;-71
2021/09/23 01:54:49;;;;;;;23.00;16.97;;;;;;;10.13;100.00;101108.19;5133616;27;20263;-72
2021/09/23 01:57:16;;;;;;;26.00;15.77;;;;;;;10.10;100.00;101108.75;5133563;27;20244;-72
2021/09/23 01:59:41;;;;;;;17.03;15.23;;;;;;;9.97;100.00;101098.53;5133673;27;20181;-71
2021/09/23 02:02:06;;;;;;;16.03;14.07;;;;;;;9.91;100.00;101089.63;5133564;27;20640;-72
2021/09/23 02:04:32;;;;;;;18.27;15.77;;;;;;;9.84;100.00;101083.72;5133141;27;20188;-72
2021/09/23 02:06:57;;;;;;;22.53;16.27;;;;;;;9.78;100.00;101098.50;5133411;27;20193;-72
2021/09/23 02:09:22;;;;;;;24.00;18.07;;;;;;;10.01;100.00;101089.50;5133234;27;20222;-72
2021/09/23 02:11:48;;;;;;;24.27;18.67;;;;;;;10.07;100.00;101095.69;5133355;27;20164;-72
2021/09/23 02:14:13;;;;;;;26.00;18.40;;;;;;;10.11;100.00;101089.34;5133060;27;20168;-72
2021/09/23 02:16:39;;;;;;;23.73;18.03;;;;;;;9.98;100.00;101072.88;5133277;27;20173;-72
2021/09/23 02:19:04;;;;;;;27.40;17.47;;;;;;;10.05;100.00;101055.03;5133163;27;20199;-72
2021/09/23 02:21:30;;;;;;;19.17;16.70;;;;;;;9.90;100.00;101062.63;5114653;27;20212;-71
2021/09/23 02:23:55;;;;;;;20.57;16.80;;;;;;;9.95;100.00;101057.09;5133034;27;20667;-72
2021/09/23 02:26:20;;;;;;;24.27;18.07;;;;;;;9.93;100.00;101045.66;5133106;27;20208;-72
2021/09/23 02:28:46;;;;;;;24.57;17.93;;;;;;;10.06;100.00;101047.66;5133189;27;20184;-71
2021/09/23 02:31:11;;;;;;;23.37;17.47;;;;;;;10.18;100.00;101049.97;5114695;27;20176;-72
2021/09/23 02:33:37;;;;;;;38.23;20.00;;;;;;;10.31;100.00;101049.28;5132794;27;20176;-72
2021/09/23 02:36:03;;;;;;;24.63;17.57;;;;;;;10.54;100.00;101042.91;5133018;27;20172;-72
2021/09/23 02:38:28;;;;;;;28.33;19.40;;;;;;;10.57;100.00;101038.81;5132258;27;20557;-72
2021/09/23 02:40:55;;;;;;;33.30;17.77;;;;;;;10.52;100.00;101038.84;5132814;27;20176;-71
2021/09/23 02:43:20;;;;;;;27.27;17.93;;;;;;;10.64;100.00;101025.56;5114277;27;20531;-72
2021/09/23 02:45:46;;;;;;;28.80;20.03;;;;;;;10.89;100.00;101021.59;5132482;27;20200;-73
2021/09/23 02:48:11;;;;;;;24.00;17.23;;;;;;;10.99;100.00;101026.88;5132684;27;20176;-72
2021/09/23 02:50:36;;;;;;;23.57;18.17;;;;;;;11.07;100.00;101019.94;5132499;27;20180;-72
2021/09/23 02:53:02;;;;;;;32.70;18.80;;;;;;;11.27;100.00;101014.88;5132523;27;20183;-72
2021/09/23 02:55:27;;;;;;;22.63;15.70;;;;;;;11.41;100.00;101001.22;5132407;27;20176;-72
2021/09/23 02:57:52;;;;;;;39.97;18.43;;;;;;;11.57;100.00;100997.09;5132664;27;20172;-72
2021/09/23 03:00:19;;;;;;;23.07;15.17;;;;;;;11.64;100.00;100993.94;5140395;27;20172;-72
2021/09/23 03:02:44;;;;;;;25.07;18.33;;;;;;;11.67;100.00;100998.81;5139191;27;20204;-72
2021/09/23 03:05:10;;;;;;;17.40;14.20;;;;;;;11.76;100.00;100994.25;5133596;27;20204;-72
2021/09/23 03:07:35;;;;;;;18.63;14.73;;;;;;;11.80;100.00;100986.25;5133102;27;20172;-72
2021/09/23 03:10:01;;;;;;;23.90;15.77;;;;;;;11.81;100.00;100968.72;5132408;27;20237;-72
2021/09/23 03:12:26;;;;;;;15.00;13.47;;;;;;;11.82;100.00;100968.41;5132380;27;20222;-71
2021/09/23 03:14:51;;;;;;;21.47;15.20;;;;;;;11.86;100.00;100963.97;5114154;27;20650;-71
2021/09/23 03:17:17;;;;;;;20.27;15.50;;;;;;;11.96;100.00;100957.44;5132285;27;20176;-72
2021/09/23 03:19:42;;;;;;;19.20;13.27;;;;;;;11.96;100.00;100956.63;5132304;27;20179;-72
2021/09/23 03:22:09;;;;;;;16.83;14.20;;;;;;;11.97;100.00;100953.56;5132138;27;20184;-72
2021/09/23 03:24:35;;;;;;;20.97;14.47;;;;;;;11.88;100.00;100952.69;5132237;27;20187;-72
2021/09/23 03:27:00;;;;;;;20.63;15.27;;;;;;;11.86;100.00;100952.16;5132087;27;20204;-72
2021/09/23 03:29:25;;;;;;;28.27;16.67;;;;;;;11.83;100.00;100945.38;5132172;27;20545;-72
2021/09/23 03:31:51;;;;;;;13.93;12.33;;;;;;;11.78;100.00;100933.72;5131879;27;20184;-72
2021/09/23 03:34:16;;;;;;;14.50;10.57;;;;;;;11.85;100.00;100942.34;5131820;27;20654;-72
2021/09/23 03:36:42;;;;;;;27.43;17.30;;;;;;;11.91;100.00;100949.34;5131986;27;20172;-72
2021/09/23 03:39:07;;;;;;;23.67;15.40;;;;;;;11.87;100.00;100951.88;5131972;27;20187;-71
2021/09/23 03:41:33;;;;;;;18.50;16.53;;;;;;;11.89;100.00;100946.91;5131971;27;20203;-72
2021/09/23 03:43:59;;;;;;;21.80;15.63;;;;;;;11.82;100.00;100942.94;5131814;27;20176;-72
2021/09/23 03:46:24;;;;;;;17.90;14.87;;;;;;;11.82;100.00;100942.94;5113081;27;20579;-71
2021/09/23 03:48:50;;;;;;;29.70;18.47;;;;;;;11.82;100.00;100949.25;5131725;27;20172;-72
2021/09/23 03:51:15;;;;;;;20.27;16.47;;;;;;;11.81;100.00;100946.81;5131852;27;20268;-71
2021/09/23 03:53:42;;;;;;;17.50;14.13;;;;;;;11.84;100.00;100951.66;5131553;27;20179;-72
2021/09/23 03:56:12;;;;;;;28.70;17.87;;;;;;;11.85;100.00;100953.28;5131715;28;20173;-72
2021/09/23 03:58:37;;;;;;;21.77;17.80;;;;;;;11.83;100.00;100947.31;5131551;28;20548;-72
2021/09/23 04:01:03;;;;;;;21.60;16.67;;;;;;;11.81;100.00;100955.03;5113261;28;20177;-72
2021/09/23 04:03:31;;;;;;;23.50;18.80;;;;;;;11.71;100.00;100956.00;5131716;28;20168;-72
2021/09/23 04:05:56;;;;;;;30.80;19.67;;;;;;;11.52;100.00;100944.38;5131696;28;20299;-72
2021/09/23 04:08:21;;;;;;;27.50;19.00;;;;;;;11.37;100.00;100941.97;5131610;28;20256;-72
2021/09/23 04:10:47;;;;;;;22.70;19.03;;;;;;;11.10;100.00;100946.28;5131487;28;20200;-71
2021/09/23 04:13:13;;;;;;;25.43;18.70;;;;;;;10.96;100.00;100948.22;5131577;28;20181;-72
2021/09/23 04:15:38;;;;;;;28.47;19.67;;;;;;;10.94;100.00;100942.22;5112926;28;20225;-72
2021/09/23 04:18:04;;;;;;;29.90;20.30;;;;;;;10.93;100.00;100937.88;5131555;28;20165;-71
2021/09/23 04:20:29;;;;;;;32.17;20.30;;;;;;;10.96;100.00;100940.00;5131571;28;20553;-72
2021/09/23 04:22:55;;;;;;;27.40;18.73;;;;;;;10.85;100.00;100928.47;5131377;28;20169;-72
2021/09/23 04:25:20;;;;;;;28.83;18.13;;;;;;;10.74;100.00;100932.47;5131231;28;20854;-72
2021/09/23 04:27:45;;;;;;;29.73;19.33;;;;;;;10.79;100.00;100928.84;5131415;28;20691;-71
2021/09/23 04:30:12;;;;;;;23.97;16.07;;;;;;;10.93;100.00;100922.28;5113043;28;20169;-71
2021/09/23 04:32:37;;;;;;;11.70;10.50;;;;;;;11.19;100.00;100936.28;5131201;28;20628;-71
2021/09/23 04:35:03;;;;;;;13.63;10.50;;;;;;;11.36;100.00;100923.94;5131506;28;20301;-71
2021/09/23 04:37:28;;;;;;;21.33;13.67;;;;;;;11.45;100.00;100920.19;5131294;28;20301;-71
2021/09/23 04:39:53;;;;;;;20.97;15.70;;;;;;;11.50;100.00;100913.78;5131401;28;20478;-72
2021/09/23 04:42:19;;;;;;;14.27;10.63;;;;;;;11.57;100.00;100915.00;5131251;28;20172;-71
2021/09/23 04:44:44;;;;;;;25.63;17.27;;;;;;;11.65;100.00;100913.47;5112760;28;20211;-71
2021/09/23 04:47:10;;;;;;;23.70;16.40;;;;;;;11.65;100.00;100907.97;5131337;28;20197;-72
2021/09/23 04:49:35;;;;;;;28.27;17.90;;;;;;;11.65;100.00;100909.91;5131250;28;20169;-72
2021/09/23 04:52:01;;;;;;;25.60;16.63;;;;;;;11.61;100.00;100916.00;5131202;28;20177;-72
2021/09/23 04:54:26;;;;;;;23.37;18.83;;;;;;;11.60;100.00;100916.31;5130893;28;20179;-72
2021/09/23 04:56:52;;;;;;;25.40;17.67;;;;;;;11.60;100.00;100913.56;5130989;28;20177;-72
2021/09/23 04:59:17;;;;;;;21.90;16.53;;;;;;;11.62;100.00;100917.63;5130867;28;20545;-72
2021/09/23 05:01:42;;;;;;;24.43;18.33;;;;;;;11.62;100.00;100920.34;5133206;27;20305;-72
2021/09/23 05:04:08;;;;;;;27.87;18.90;;;;;;;11.61;100.00;100923.41;5134519;27;20259;-72
2021/09/23 05:06:33;;;;;;;26.20;18.70;;;;;;;11.65;100.00;100918.94;5134839;27;20295;-72
2021/09/23 05:08:58;;;;;;;25.43;18.80;;;;;;;11.57;100.00;100920.47;5134661;27;20180;-71
2021/09/23 05:11:25;;;;;;;25.20;17.37;;;;;;;11.41;100.00;100908.22;5134682;27;20506;-72
2021/09/23 05:13:51;;;;;;;20.73;17.07;;;;;;;11.19;100.00;100888.97;5134586;27;20172;-72
2021/09/23 05:16:17;;;;;;;21.97;16.10;;;;;;;11.08;100.00;100896.56;5134582;27;20595;-72
2021/09/23 05:18:43;;;;;;;20.50;14.70;;;;;;;10.99;100.00;100888.28;5134424;27;20176;-72
2021/09/23 05:21:08;;;;;;;22.43;17.23;;;;;;;10.91;100.00;100893.63;5134508;27;20188;-72
2021/09/23 05:23:34;;;;;;;23.50;16.37;;;;;;;10.88;100.00;100884.13;5134200;27;20683;-72
2021/09/23 05:25:59;;;;;;;20.97;16.20;;;;;;;10.82;100.00;100870.84;5134311;27;20619;-72
2021/09/23 05:28:25;;;;;;;20.40;17.63;;;;;;;10.79;100.00;100879.66;5134321;27;20240;-72
2021/09/23 05:30:50;;;;;;;24.37;17.13;;;;;;;10.74;100.00;100877.81;5134315;27;20172;-72
2021/09/23 05:33:16;;;;;;;28.53;17.70;;;;;;;10.78;100.00;100884.31;5134243;27;20755;-72
2021/09/23 05:35:41;;;;;;;23.37;17.93;;;;;;;10.92;100.00;100878.84;5115535;27;20173;-72
2021/09/23 05:38:07;;;;;;;29.43;19.40;;;;;;;10.94;100.00;100871.16;5134612;27;20256;-72
2021/09/23 05:40:33;;;;;;;32.33;18.60;;;;;;;11.08;100.00;100874.69;5134167;27;20851;-72
2021/09/23 05:42:58;;;;;;;24.03;17.10;;;;;;;11.09;100.00;100884.53;5134126;27;20489;-72
2021/09/23 05:45:23;;;;;;;24.27;18.37;;;;;;;11.21;100.00;100882.09;5133767;27;20202;-72
2021/09/23 05:47:49;;;;;;;26.97;17.57;;;;;;;11.35;100.00;100873.06;5134073;27;20182;-71
2021/09/23 05:50:15;;;;;;;21.97;18.00;;;;;;;11.44;100.00;100871.25;5133900;27;20612;-72
2021/09/23 05:52:40;;;;;;;21.83;15.67;;;;;;;11.39;100.00;100874.88;5133687;27;20177;-72
2021/09/23 05:55:06;;;;;;;20.70;16.80;;;;;;;11.44;100.00;100869.31;5133854;27;20169;-72
2021/09/23 05:57:35;;;;;;;17.27;13.90;;;;;;;11.63;100.00;100871.91;5133698;27;20169;-72
2021/09/23 06:00:05;;;;;;;19.23;15.53;;;;;;;11.56;100.00;100876.97;5133753;27;20263;-71
2021/09/23 06:02:30;;;;;;;20.20;15.93;;;;;;;11.60;100.00;100875.25;5133681;27;20200;-72
2021/09/23 06:04:55;;;;;;;25.57;15.40;;;;;;;11.67;100.00;100866.63;5133236;27;20223;-72
2021/09/23 06:07:21;;;;;;;24.03;14.93;;;;;;;11.71;100.00;100859.41;5133575;27;20203;-72
2021/09/23 06:09:46;;;;;;;20.30;15.53;;;;;;;11.77;100.00;100855.44;5133626;27;20198;-72
2021/09/23 06:12:11;;;;;;;21.33;15.90;;;;;;;11.79;100.00;100845.81;5132678;27;20164;-72
2021/09/23 06:14:37;;;;;;;20.67;15.47;;;;;;;11.86;100.00;100845.38;5133413;27;20452;-72
2021/09/23 06:17:14;;;;;;;14.93;12.57;;;;;;;11.98;100.00;100834.69;5133352;27;20317;-72
2021/09/23 06:19:40;;;;;;;17.00;12.50;;;;;;;12.02;100.00;100823.94;5133403;27;20176;-72
2021/09/23 06:22:06;;;;;;;11.10;10.00;;;;;;;12.10;100.00;100831.41;5133523;27;20172;-72
2021/09/23 06:24:32;;;;;;;16.27;10.57;;;;;;;12.19;100.00;100826.81;5133156;27;20168;-72
2021/09/23 06:26:57;;;;;;;16.50;12.87;;;;;;;12.17;100.00;100827.13;5133162;27;20214;-72
2021/09/23 06:29:23;;;;;;;12.83;11.57;;;;;;;12.19;100.00;100833.09;5133268;27;20208;-71
2021/09/23 06:31:48;;;;;;;13.13;11.53;;;;;;;12.23;100.00;100830.53;5132921;27;20169;-71
2021/09/23 06:34:13;;;;;;;12.60;11.37;;;;;;;12.26;100.00;100829.88;5132958;27;20631;-72
2021/09/23 06:36:39;;;;;;;8.43;5.53;;;;;;;12.34;100.00;100836.56;5133069;27;20533;-72
2021/09/23 06:39:05;;;;;;;15.17;9.50;;;;;;;12.37;100.00;100831.25;5133038;27;20175;-72
2021/09/23 06:41:31;;;;;;;12.23;9.67;;;;;;;12.40;100.00;100821.59;5132947;27;20190;-72
2021/09/23 06:44:00;;;;;;;9.33;7.83;;;;;;;12.43;100.00;100813.53;5132863;27;20620;-71
2021/09/23 06:46:27;;;;;;;14.43;11.93;;;;;;;12.46;100.00;100814.88;5132808;27;20192;-71
2021/09/23 06:48:53;;;;;;;13.27;11.87;;;;;;;12.51;100.00;100831.97;5132736;27;20160;-71
2021/09/23 06:51:19;;;;;;;7.17;6.47;;;;;;;12.59;100.00;100824.94;5132812;27;20564;-71
2021/09/23 06:53:44;;;;;;;11.30;10.20;;;;;;;12.61;100.00;100808.16;5132613;27;20185;-71
2021/09/23 06:56:09;;;;;;;11.33;8.77;;;;;;;12.63;100.00;100800.44;5132707;27;20192;-71
2021/09/23 06:58:35;;;;;;;10.87;9.20;;;;;;;12.71;100.00;100800.44;5132320;27;20184;-71
2021/09/23 07:01:00;;;;;;;12.27;10.30;;;;;;;12.78;100.00;100789.84;5132593;27;20267;-71
2021/09/23 07:03:25;;;;;;;9.57;8.63;;;;;;;12.85;100.00;100791.31;5132727;27;20172;-71
2021/09/23 07:05:51;;;;;;;10.30;7.73;;;;;;;12.94;100.00;100803.13;5132268;27;20274;-71
2021/09/23 07:08:20;;;;;;;7.97;6.03;;;;;;;13.04;100.00;100803.63;5113944;27;20686;-71
2021/09/23 07:10:46;;;;;;;9.10;8.20;;;;;;;13.11;100.00;100805.91;5132484;27;20172;-71
2021/09/23 07:13:11;;;;;;;6.30;5.33;;;;;;;13.17;100.00;100796.41;5132470;27;20179;-71
2021/09/23 07:15:38;;;;;;;10.10;8.97;;;;;;;13.20;100.00;100798.53;5113941;27;20176;-71
2021/09/23 07:18:03;;;;;;;8.87;7.97;;;;;;;13.23;100.00;100786.09;5132351;27;20241;-71
2021/09/23 07:20:29;;;;;;;9.20;8.40;;;;;;;13.25;100.00;100773.69;5132358;27;20177;-71
2021/09/23 07:22:54;;;;;;;8.00;7.23;;;;;;;13.32;100.00;100773.22;5132686;27;20179;-72
2021/09/23 07:25:23;;;;;;;9.90;8.60;;;;;;;13.35;100.00;100765.13;5131548;27;20196;-71
2021/09/23 07:27:53;;;;;;;4.97;3.67;;;;;;;13.43;100.00;100769.00;5132156;27;20178;-71
2021/09/23 07:30:20;;;;;;;8.30;7.57;;;;;;;13.50;100.00;100768.53;5132032;27;20177;-72
2021/09/23 07:32:45;;;;;;;10.93;9.00;;;;;;;13.57;100.00;100772.41;5132161;27;20251;-72
2021/09/23 07:35:11;;;;;;;10.63;7.00;;;;;;;13.69;100.00;100769.00;5131781;27;20271;-71
2021/09/23 07:37:37;;;;;;;6.87;6.23;;;;;;;13.75;100.00;100748.50;5132115;27;20192;-71
2021/09/23 07:40:07;;;;;;;7.80;7.00;;;;;;;13.86;100.00;100736.03;5132156;27;20508;-71
2021/09/23 07:42:33;;;;;;;5.33;4.40;;;;;;;13.96;97.71;100743.94;5132009;27;20176;-71
2021/09/23 07:44:59;;;;;;;8.50;7.67;;;;;;;14.03;97.04;100743.41;5131901;27;20707;-71
2021/09/23 07:47:25;;;;;;;9.00;5.93;;;;;;;14.10;96.55;100734.69;5131851;27;20177;-71
2021/09/23 07:49:51;;;;;;;5.27;4.57;;;;;;;14.12;96.11;100727.72;5131976;27;20199;-71
2021/09/23 07:52:16;;;;;;;9.13;6.17;;;;;;;14.15;95.16;100729.81;5131860;27;20214;-71
2021/09/23 07:54:42;;;;;;;4.67;2.90;;;;;;;14.17;95.16;100732.22;5131768;27;20175;-71
2021/09/23 07:57:07;;;;;;;5.03;4.50;;;;;;;14.20;94.54;100740.63;5113087;27;20180;-74
2021/09/23 07:59:32;;;;;;;4.33;3.87;;;;;;;14.21;94.31;100725.75;5131522;27;20263;-74
2021/09/23 08:01:58;;;;;;;3.27;3.07;;;;;;;14.25;93.65;100734.16;5131766;27;20169;-74
2021/09/23 08:04:23;;;;;;;2.77;2.57;;;;;;;14.28;94.30;100737.03;5131552;28;20545;-74
2021/09/23 08:06:48;;;;;;;4.77;4.37;;;;;;;14.25;93.28;100736.91;5131546;28;20200;-72
2021/09/23 08:09:14;;;;;;;3.73;3.37;;;;;;;14.29;92.54;100740.59;5131451;28;20185;-72
2021/09/23 08:11:40;;;;;;;8.67;7.27;;;;;;;14.31;93.22;100735.56;5131595;28;20172;-71
2021/09/23 08:14:06;;;;;;;2.97;2.50;;;;;;;14.33;93.37;100725.06;5131641;27;20173;-72
2021/09/23 08:16:31;;;;;;;5.83;5.33;;;;;;;14.37;92.95;100723.28;5130806;28;20164;-71
2021/09/23 08:18:57;;;;;;;3.87;3.43;;;;;;;14.44;92.60;100709.84;5129384;28;20202;-72
2021/09/23 08:21:22;;;;;;;5.83;4.83;;;;;;;14.54;92.48;100695.72;5131471;28;20173;-71
2021/09/23 08:23:47;;;;;;;3.80;3.60;;;;;;;14.66;91.69;100700.50;5130527;28;20251;-72
2021/09/23 08:26:13;;;;;;;4.43;3.63;;;;;;;14.75;90.73;100693.00;5124644;28;20313;-72
2021/09/23 08:28:38;;;;;;;5.07;4.30;;;;;;;14.89;90.87;100695.50;5130834;28;20188;-72
2021/09/23 08:31:04;;;;;;;6.77;6.17;;;;;;;15.01;90.37;100705.78;5131867;28;20186;-72
2021/09/23 08:33:29;;;;;;;2.50;2.30;;;;;;;15.05;89.34;100687.47;5130995;28;20207;-71
2021/09/23 08:35:55;;;;;;;4.40;4.00;;;;;;;15.00;89.01;100680.22;5127658;27;20191;-71
2021/09/23 08:38:20;;;;;;;3.23;3.03;;;;;;;14.93;89.59;100687.41;5133331;27;20204;-72
2021/09/23 08:40:47;;;;;;;5.70;5.00;;;;;;;14.87;88.69;100681.28;5131589;27;20173;-71
2021/09/23 08:43:14;;;;;;;4.40;4.00;;;;;;;14.85;90.12;100662.34;5135243;27;20173;-72
2021/09/23 08:45:39;;;;;;;6.33;4.50;;;;;;;14.85;89.60;100664.31;5134999;27;20559;-72
2021/09/23 08:48:06;;;;;;;6.10;5.53;;;;;;;14.88;89.46;100663.63;5135115;27;20198;-72
2021/09/23 08:50:31;;;;;;;4.07;3.77;;;;;;;14.98;89.93;100659.69;5135320;27;20164;-71
2021/09/23 08:52:58;;;;;;;8.13;6.73;;;;;;;15.09;89.83;100661.69;5135363;27;20831;-73
2021/09/23 08:55:27;;;;;;;3.50;3.10;;;;;;;15.24;88.92;100659.47;5116936;27;20536;-72
2021/09/23 08:57:53;;;;;;;5.27;4.57;;;;;;;15.37;88.16;100641.88;5116656;27;20184;-72
2021/09/23 09:00:21;;;;;;;2.50;2.07;;;;;;;15.49;87.13;100644.66;5134946;27;20191;-72
2021/09/23 09:03:00;;;;;;;5.97;5.47;;;;;;;15.59;86.76;100637.91;5134966;27;20233;-72
2021/09/23 09:05:26;;;;;;;3.30;3.03;;;;;;;15.75;86.28;100636.13;5134685;27;20203;-73
2021/09/23 09:08:10;;;;;;;2.97;2.70;;;;;;;15.87;85.98;100635.34;5134783;27;20168;-72
2021/09/23 09:10:37;;;;;;;3.60;3.23;;;;;;;15.95;85.12;100621.50;5132932;27;20238;-72
2021/09/23 09:13:05;;;;;;;6.40;3.37;;;;;;;16.12;83.01;100636.19;5134609;27;20204;-72
2021/09/23 09:15:33;;;;;;;3.43;3.13;;;;;;;16.22;82.50;100617.25;5132236;27;20188;-71
2021/09/23 09:18:15;;;;;;;4.53;4.00;;;;;;;16.30;82.14;100621.81;5118881;27;20302;-71
2021/09/23 09:20:56;;;;;;;3.70;1.70;;;;;;;16.47;80.64;100615.25;5134608;27;20331;-71
2021/09/23 09:23:24;;;;;;;4.13;3.20;;;;;;;16.58;79.61;100613.63;5134690;27;20209;-72
2021/09/23 09:25:50;;;;;;;7.87;4.37;;;;;;;16.65;80.29;100613.06;5115844;27;20204;-72
2021/09/23 09:28:20;;;;;;;1.83;1.70;;;;;;;16.71;78.74;100617.22;5116107;27;20229;-71
2021/09/23 09:30:56;;;;;;;2.83;2.20;;;;;;;16.88;77.50;100611.41;5134453;27;20688;-72
2021/09/23 09:33:34;;;;;;;2.17;1.93;;;;;;;17.11;76.69;100677.94;5134397;27;20219;-71
2021/09/23 09:35:59;;;;;;;2.60;2.40;;;;;;;17.21;73.87;100599.31;5115759;27;20308;-71
2021/09/23 09:38:26;;;;;;;3.17;2.80;;;;;;;17.27;72.77;100597.13;5134344;27;20196;-71
2021/09/23 09:40:55;;;;;;;2.23;1.70;;;;;;;17.32;71.02;100708.13;5134269;27;20179;-71
2021/09/23 09:43:20;;;;;;;2.80;2.60;;;;;;;17.29;72.74;100659.13;5134178;27;20180;-71
2021/09/23 09:45:48;;;;;;;3.40;2.10;;;;;;;17.45;71.35;100604.72;5134061;27;20193;-71
2021/09/23 09:48:13;;;;;;;2.03;1.83;;;;;;;17.48;70.58;100597.69;5133921;27;20172;-71
2021/09/23 09:50:43;;;;;;;5.13;1.67;;;;;;;17.46;69.30;100588.97;5133897;27;20648;-71
2021/09/23 09:53:12;;;;;;;3.13;2.43;;;;;;;17.45;69.11;100579.06;5134007;27;20309;-71
2021/09/23 09:55:45;;;;;;;2.20;1.60;;;;;;;17.59;66.79;100589.69;5133713;27;20179;-71
2021/09/23 09:58:11;;;;;;;2.07;1.93;;;;;;;17.67;67.15;100572.16;5134287;27;20628;-72
2021/09/23 10:00:37;;;;;;;1.37;1.27;;;;;;;17.86;67.10;100572.25;5133916;27;20647;-71
2021/09/23 10:03:04;;;;;;;3.27;2.57;;;;;;;18.02;66.54;100566.72;5133960;27;20164;-71
2021/09/23 10:05:30;;;;;;;4.23;2.30;;;;;;;18.08;67.24;100566.09;5133469;27;20213;-72
2021/09/23 10:07:57;;;;;;;2.70;1.73;;;;;;;18.17;66.42;100549.28;5133937;27;20194;-71
2021/09/23 10:10:25;;;;;;;1.50;1.40;;;;;;;18.00;62.46;100560.75;5133744;27;20165;-71
2021/09/23 10:12:55;;;;;;;8.50;2.53;;;;;;;17.89;62.84;100537.56;5133673;27;20196;-71
2021/09/23 10:15:20;;;;;;;8.90;1.73;;;;;;;17.90;64.15;100536.41;5133512;27;20678;-71
2021/09/23 10:17:48;;;;;;;16.63;1.90;;;;;;;17.91;61.35;100529.72;5113361;27;20192;-72
2021/09/23 10:20:18;;;;;;;1.30;1.17;;;;;;;18.00;63.18;100520.06;5133606;27;20230;-71
2021/09/23 10:22:43;;;;;;;3.87;2.70;;;;;;;18.05;63.27;100519.00;5133450;27;20168;-71
2021/09/23 10:25:12;;;;;;;1.70;1.53;;;;;;;18.16;62.81;100519.25;5132998;27;20168;-72
2021/09/23 10:30:25;;;;;;;2.07;1.93;;;;;;;18.27;63.01;100518.31;5133512;27;20604;-72
2021/09/23 10:32:51;;;;;;;1.03;0.93;;;;;;;18.38;61.39;100500.00;5133148;27;20172;-72
2021/09/23 10:35:22;;;;;;;1.27;1.17;;;;;;;18.36;60.10;100490.44;5132993;27;20168;-72
2021/09/23 10:37:50;;;;;;;1.33;1.17;;;;;;;18.32;60.12;100506.97;5133167;27;20252;-72
2021/09/23 10:40:17;;;;;;;2.27;1.77;;;;;;;18.42;60.34;100489.00;5133009;27;20191;-72
2021/09/23 10:42:44;;;;;;;0.80;0.80;;;;;;;18.52;60.84;100484.88;5133157;27;20176;-72
2021/09/23 10:45:10;;;;;;;4.43;1.37;;;;;;;18.51;60.74;100470.19;5132721;27;20173;-73
2021/09/23 10:47:36;;;;;;;11.13;2.20;;;;;;;18.36;60.36;100460.00;5132968;27;20583;-72
2021/09/23 10:50:04;;;;;;;0.73;0.73;;;;;;;18.26;59.48;100466.13;5132922;27;20167;-72
2021/09/23 10:52:34;;;;;;;3.83;1.33;;;;;;;18.21;59.63;100469.97;5132506;27;20165;-72
2021/09/23 10:55:01;;;;;;;1.23;0.90;;;;;;;18.27;58.94;100465.78;5132474;27;20173;-72
2021/09/23 10:57:28;;;;;;;3.33;1.00;;;;;;;18.30;60.90;100464.22;5132452;27;20259;-72
2021/09/23 10:59:55;;;;;;;1.70;1.60;;;;;;;18.42;61.55;100453.03;5130042;27;20179;-72
2021/09/23 11:02:26;;;;;;;3.73;1.30;;;;;;;18.46;59.96;100455.88;5131751;27;20533;-72
2021/09/23 11:04:54;;;;;;;1.00;0.90;;;;;;;18.46;59.98;100440.06;5132372;27;20188;-72
2021/09/23 11:07:21;;;;;;;9.27;2.40;;;;;;;18.57;59.23;100443.84;5132202;27;20241;-72